Terminal Aerodrome Forecast
Issued by NWS Charleston, WV

Current Version | Previous Version | Graphics & Text | Print | Product List | Glossary On
Versions: 1 2 3 4 5 6 7 8 9 10 11 12 13 14 15 16 17 18 19 20 21 22 23 24 25 26 27 28 29 30 31 32
000
FTUS41 KRLX 272350 RRA
TAFEKN
TAF
KEKN 272350Z 2800/2824 27004KT P6SM SCT040 SCT070
     FM280400 00000KT 3SM BR SCT070
     FM280500 00000KT 1SM BR BKN001 BKN080
     FM281200 00000KT 4SM BR BKN004 BKN070
     FM281400 00000KT 6SM HZ VCSH BKN050
     FM281600 26004KT 3SM SHRA VCTS BKN040CB=

USA.gov is the U.S. government's official web portal to all federal, state and local government web resources and services.